sensor_id;sensor_type;location;lat;lon;timestamp;P1;durP1;ratioP1;P2;durP2;ratioP2
84866;SDS011;75123;51.788;4.654;2024-03-08T00:01:40;41.66;;;40.90;;
84866;SDS011;75123;51.788;4.654;2024-03-08T00:04:06;42.49;;;41.83;;
84866;SDS011;75123;51.788;4.654;2024-03-08T00:06:32;41.50;;;40.87;;
84866;SDS011;75123;51.788;4.654;2024-03-08T00:08:57;41.54;;;40.90;;
84866;SDS011;75123;51.788;4.654;2024-03-08T00:11:23;40.49;;;39.84;;
84866;SDS011;75123;51.788;4.654;2024-03-08T00:13:51;41.06;;;40.46;;
84866;SDS011;75123;51.788;4.654;2024-03-08T00:16:18;40.75;;;40.19;;
84866;SDS011;75123;51.788;4.654;2024-03-08T00:18:44;40.70;;;40.15;;
84866;SDS011;75123;51.788;4.654;2024-03-08T00:21:10;40.46;;;39.73;;
84866;SDS011;75123;51.788;4.654;2024-03-08T00:23:37;41.41;;;40.80;;
84866;SDS011;75123;51.788;4.654;2024-03-08T00:26:02;40.83;;;40.06;;
84866;SDS011;75123;51.788;4.654;2024-03-08T00:28:29;41.69;;;41.14;;
84866;SDS011;75123;51.788;4.654;2024-03-08T00:30:56;40.92;;;40.26;;
84866;SDS011;75123;51.788;4.654;2024-03-08T00:33:21;41.71;;;40.93;;
84866;SDS011;75123;51.788;4.654;2024-03-08T00:35:47;40.21;;;39.55;;
84866;SDS011;75123;51.788;4.654;2024-03-08T00:38:13;40.39;;;39.79;;
84866;SDS011;75123;51.788;4.654;2024-03-08T00:40:38;39.81;;;39.19;;
84866;SDS011;75123;51.788;4.654;2024-03-08T00:43:05;39.55;;;38.99;;
84866;SDS011;75123;51.788;4.654;2024-03-08T00:45:31;40.88;;;40.01;;
84866;SDS011;75123;51.788;4.654;2024-03-08T00:47:56;40.45;;;39.85;;
84866;SDS011;75123;51.788;4.654;2024-03-08T00:50:22;41.12;;;40.44;;
84866;SDS011;75123;51.788;4.654;2024-03-08T00:52:48;41.82;;;40.99;;
84866;SDS011;75123;51.788;4.654;2024-03-08T00:55:13;41.52;;;40.73;;
84866;SDS011;75123;51.788;4.654;2024-03-08T00:57:39;41.43;;;40.84;;
84866;SDS011;75123;51.788;4.654;2024-03-08T01:00:05;40.65;;;40.11;;
84866;SDS011;75123;51.788;4.654;2024-03-08T01:02:34;40.50;;;39.82;;
84866;SDS011;75123;51.788;4.654;2024-03-08T01:05:01;42.53;;;41.88;;
84866;SDS011;75123;51.788;4.654;2024-03-08T01:07:26;41.89;;;41.14;;
84866;SDS011;75123;51.788;4.654;2024-03-08T01:09:52;41.01;;;40.35;;
84866;SDS011;75123;51.788;4.654;2024-03-08T01:12:17;40.86;;;40.66;;
84866;SDS011;75123;51.788;4.654;2024-03-08T01:14:43;41.85;;;41.26;;
84866;SDS011;75123;51.788;4.654;2024-03-08T01:17:08;41.61;;;40.91;;
84866;SDS011;75123;51.788;4.654;2024-03-08T01:19:34;42.63;;;41.72;;
84866;SDS011;75123;51.788;4.654;2024-03-08T01:22:00;40.84;;;40.46;;
84866;SDS011;75123;51.788;4.654;2024-03-08T01:24:26;41.00;;;40.42;;
84866;SDS011;75123;51.788;4.654;2024-03-08T01:26:51;41.10;;;40.56;;
84866;SDS011;75123;51.788;4.654;2024-03-08T01:29:17;41.27;;;40.72;;
84866;SDS011;75123;51.788;4.654;2024-03-08T01:31:42;40.89;;;40.48;;
84866;SDS011;75123;51.788;4.654;2024-03-08T01:34:08;41.33;;;40.82;;
84866;SDS011;75123;51.788;4.654;2024-03-08T01:36:33;41.47;;;40.89;;
84866;SDS011;75123;51.788;4.654;2024-03-08T01:38:59;40.38;;;40.02;;
84866;SDS011;75123;51.788;4.654;2024-03-08T01:41:24;41.56;;;41.12;;
84866;SDS011;75123;51.788;4.654;2024-03-08T01:43:50;42.23;;;41.74;;
84866;SDS011;75123;51.788;4.654;2024-03-08T01:46:16;42.83;;;42.03;;
84866;SDS011;75123;51.788;4.654;2024-03-08T01:48:44;42.08;;;41.55;;
84866;SDS011;75123;51.788;4.654;2024-03-08T01:51:10;41.65;;;41.13;;
84866;SDS011;75123;51.788;4.654;2024-03-08T01:53:37;42.25;;;41.69;;
84866;SDS011;75123;51.788;4.654;2024-03-08T01:56:02;41.96;;;41.61;;
84866;SDS011;75123;51.788;4.654;2024-03-08T01:58:29;40.39;;;40.09;;
84866;SDS011;75123;51.788;4.654;2024-03-08T02:00:56;42.27;;;41.49;;
84866;SDS011;75123;51.788;4.654;2024-03-08T02:03:25;42.16;;;41.39;;
84866;SDS011;75123;51.788;4.654;2024-03-08T02:05:50;41.12;;;40.50;;
84866;SDS011;75123;51.788;4.654;2024-03-08T02:08:16;40.49;;;40.20;;
84866;SDS011;75123;51.788;4.654;2024-03-08T02:10:44;42.11;;;41.52;;
84866;SDS011;75123;51.788;4.654;2024-03-08T02:13:10;41.29;;;41.09;;
84866;SDS011;75123;51.788;4.654;2024-03-08T02:15:55;41.98;;;41.57;;
84866;SDS011;75123;51.788;4.654;2024-03-08T02:18:22;42.52;;;41.85;;
84866;SDS011;75123;51.788;4.654;2024-03-08T02:20:54;41.21;;;40.83;;
84866;SDS011;75123;51.788;4.654;2024-03-08T02:23:20;41.44;;;41.21;;
84866;SDS011;75123;51.788;4.654;2024-03-08T02:25:47;42.32;;;41.70;;
84866;SDS011;75123;51.788;4.654;2024-03-08T02:28:13;42.30;;;41.56;;
84866;SDS011;75123;51.788;4.654;2024-03-08T02:30:39;41.64;;;40.90;;
84866;SDS011;75123;51.788;4.654;2024-03-08T02:33:06;42.34;;;41.62;;
84866;SDS011;75123;51.788;4.654;2024-03-08T02:35:32;40.33;;;39.96;;
84866;SDS011;75123;51.788;4.654;2024-03-08T02:37:58;41.04;;;40.65;;
84866;SDS011;75123;51.788;4.654;2024-03-08T02:40:24;42.36;;;41.91;;
84866;SDS011;75123;51.788;4.654;2024-03-08T02:42:50;41.28;;;40.61;;
84866;SDS011;75123;51.788;4.654;2024-03-08T02:45:15;40.69;;;40.13;;
84866;SDS011;75123;51.788;4.654;2024-03-08T02:47:41;40.35;;;40.08;;
84866;SDS011;75123;51.788;4.654;2024-03-08T02:50:06;40.55;;;40.39;;
84866;SDS011;75123;51.788;4.654;2024-03-08T02:52:35;41.51;;;40.87;;
84866;SDS011;75123;51.788;4.654;2024-03-08T02:55:01;41.94;;;41.55;;
84866;SDS011;75123;51.788;4.654;2024-03-08T02:57:27;41.88;;;41.65;;
84866;SDS011;75123;51.788;4.654;2024-03-08T02:59:55;41.63;;;41.52;;
84866;SDS011;75123;51.788;4.654;2024-03-08T03:02:21;40.91;;;40.84;;
84866;SDS011;75123;51.788;4.654;2024-03-08T03:04:48;41.23;;;40.71;;
84866;SDS011;75123;51.788;4.654;2024-03-08T03:07:14;42.69;;;42.32;;
84866;SDS011;75123;51.788;4.654;2024-03-08T03:09:39;44.02;;;43.37;;
84866;SDS011;75123;51.788;4.654;2024-03-08T03:12:06;43.83;;;42.99;;
84866;SDS011;75123;51.788;4.654;2024-03-08T03:14:37;44.11;;;43.39;;
84866;SDS011;75123;51.788;4.654;2024-03-08T03:17:05;42.55;;;42.40;;
84866;SDS011;75123;51.788;4.654;2024-03-08T03:19:31;41.90;;;41.74;;
84866;SDS011;75123;51.788;4.654;2024-03-08T03:21:56;43.22;;;42.80;;
84866;SDS011;75123;51.788;4.654;2024-03-08T03:24:22;42.89;;;42.66;;
84866;SDS011;75123;51.788;4.654;2024-03-08T03:26:48;43.34;;;42.85;;
84866;SDS011;75123;51.788;4.654;2024-03-08T03:29:14;42.80;;;42.28;;
84866;SDS011;75123;51.788;4.654;2024-03-08T03:31:42;42.65;;;42.38;;
84866;SDS011;75123;51.788;4.654;2024-03-08T03:34:07;44.74;;;44.21;;
84866;SDS011;75123;51.788;4.654;2024-03-08T03:36:33;43.69;;;43.23;;
84866;SDS011;75123;51.788;4.654;2024-03-08T03:39:00;44.40;;;43.85;;
84866;SDS011;75123;51.788;4.654;2024-03-08T03:41:41;45.58;;;44.64;;
84866;SDS011;75123;51.788;4.654;2024-03-08T03:44:07;44.33;;;43.96;;
84866;SDS011;75123;51.788;4.654;2024-03-08T03:46:34;44.64;;;44.25;;
84866;SDS011;75123;51.788;4.654;2024-03-08T03:48:59;44.40;;;44.06;;
84866;SDS011;75123;51.788;4.654;2024-03-08T03:51:24;44.13;;;43.83;;
84866;SDS011;75123;51.788;4.654;2024-03-08T03:53:51;44.87;;;44.37;;
84866;SDS011;75123;51.788;4.654;2024-03-08T03:56:17;45.26;;;44.36;;
84866;SDS011;75123;51.788;4.654;2024-03-08T03:58:43;45.76;;;44.91;;
84866;SDS011;75123;51.788;4.654;2024-03-08T04:01:08;45.30;;;44.48;;
84866;SDS011;75123;51.788;4.654;2024-03-08T04:03:35;43.45;;;43.27;;
84866;SDS011;75123;51.788;4.654;2024-03-08T04:06:01;44.32;;;44.19;;
84866;SDS011;75123;51.788;4.654;2024-03-08T04:08:27;45.55;;;45.09;;
84866;SDS011;75123;51.788;4.654;2024-03-08T04:10:52;45.21;;;44.75;;
84866;SDS011;75123;51.788;4.654;2024-03-08T04:13:18;46.24;;;45.68;;
84866;SDS011;75123;51.788;4.654;2024-03-08T04:15:45;44.86;;;44.68;;
84866;SDS011;75123;51.788;4.654;2024-03-08T04:18:13;44.54;;;44.02;;
84866;SDS011;75123;51.788;4.654;2024-03-08T04:20:39;46.13;;;45.51;;
84866;SDS011;75123;51.788;4.654;2024-03-08T04:23:05;45.68;;;45.67;;
84866;SDS011;75123;51.788;4.654;2024-03-08T04:25:31;44.36;;;44.03;;
84866;SDS011;75123;51.788;4.654;2024-03-08T04:27:57;45.72;;;45.37;;
84866;SDS011;75123;51.788;4.654;2024-03-08T04:30:22;46.26;;;45.54;;
84866;SDS011;75123;51.788;4.654;2024-03-08T04:32:49;45.72;;;45.64;;
84866;SDS011;75123;51.788;4.654;2024-03-08T04:35:15;46.82;;;46.27;;
84866;SDS011;75123;51.788;4.654;2024-03-08T04:37:41;47.46;;;46.51;;
84866;SDS011;75123;51.788;4.654;2024-03-08T04:40:06;46.65;;;46.18;;
84866;SDS011;75123;51.788;4.654;2024-03-08T04:42:32;45.96;;;45.85;;
84866;SDS011;75123;51.788;4.654;2024-03-08T04:44:58;47.11;;;46.52;;
84866;SDS011;75123;51.788;4.654;2024-03-08T04:47:24;47.26;;;46.71;;
84866;SDS011;75123;51.788;4.654;2024-03-08T04:49:50;46.71;;;46.47;;
84866;SDS011;75123;51.788;4.654;2024-03-08T04:52:15;45.40;;;45.08;;
84866;SDS011;75123;51.788;4.654;2024-03-08T04:54:41;45.42;;;45.33;;
84866;SDS011;75123;51.788;4.654;2024-03-08T04:57:07;46.98;;;46.89;;
84866;SDS011;75123;51.788;4.654;2024-03-08T04:59:32;46.94;;;46.76;;
84866;SDS011;75123;51.788;4.654;2024-03-08T05:01:58;45.43;;;45.32;;
84866;SDS011;75123;51.788;4.654;2024-03-08T05:04:24;46.60;;;46.01;;
84866;SDS011;75123;51.788;4.654;2024-03-08T05:06:49;45.14;;;44.91;;
84866;SDS011;75123;51.788;4.654;2024-03-08T05:09:15;47.26;;;46.87;;
84866;SDS011;75123;51.788;4.654;2024-03-08T05:11:41;45.94;;;45.47;;
84866;SDS011;75123;51.788;4.654;2024-03-08T05:14:08;46.70;;;46.32;;
84866;SDS011;75123;51.788;4.654;2024-03-08T05:16:33;47.04;;;46.31;;
84866;SDS011;75123;51.788;4.654;2024-03-08T05:18:59;48.01;;;47.63;;
84866;SDS011;75123;51.788;4.654;2024-03-08T05:21:24;47.08;;;46.50;;
84866;SDS011;75123;51.788;4.654;2024-03-08T05:23:50;47.23;;;46.91;;
84866;SDS011;75123;51.788;4.654;2024-03-08T05:26:16;47.66;;;47.62;;
84866;SDS011;75123;51.788;4.654;2024-03-08T05:28:41;47.55;;;47.00;;
84866;SDS011;75123;51.788;4.654;2024-03-08T05:31:07;47.41;;;47.25;;
84866;SDS011;75123;51.788;4.654;2024-03-08T05:33:33;47.77;;;47.33;;
84866;SDS011;75123;51.788;4.654;2024-03-08T05:36:02;49.34;;;48.34;;
84866;SDS011;75123;51.788;4.654;2024-03-08T05:38:28;49.51;;;48.84;;
84866;SDS011;75123;51.788;4.654;2024-03-08T05:40:53;47.08;;;46.66;;
84866;SDS011;75123;51.788;4.654;2024-03-08T05:43:19;48.70;;;47.99;;
84866;SDS011;75123;51.788;4.654;2024-03-08T05:45:45;48.55;;;47.84;;
84866;SDS011;75123;51.788;4.654;2024-03-08T05:48:11;49.52;;;48.62;;
84866;SDS011;75123;51.788;4.654;2024-03-08T05:50:38;48.19;;;47.72;;
84866;SDS011;75123;51.788;4.654;2024-03-08T05:53:03;47.15;;;47.04;;
84866;SDS011;75123;51.788;4.654;2024-03-08T05:55:32;48.06;;;47.63;;
84866;SDS011;75123;51.788;4.654;2024-03-08T05:58:01;48.89;;;47.82;;
84866;SDS011;75123;51.788;4.654;2024-03-08T06:00:27;47.66;;;47.30;;
84866;SDS011;75123;51.788;4.654;2024-03-08T06:02:53;48.53;;;47.95;;
84866;SDS011;75123;51.788;4.654;2024-03-08T06:05:18;47.81;;;47.65;;
84866;SDS011;75123;51.788;4.654;2024-03-08T06:07:44;48.61;;;47.73;;
84866;SDS011;75123;51.788;4.654;2024-03-08T06:10:09;49.76;;;49.04;;
84866;SDS011;75123;51.788;4.654;2024-03-08T06:12:36;48.58;;;48.38;;
84866;SDS011;75123;51.788;4.654;2024-03-08T06:15:09;48.78;;;48.26;;
84866;SDS011;75123;51.788;4.654;2024-03-08T06:17:35;48.16;;;47.89;;
84866;SDS011;75123;51.788;4.654;2024-03-08T06:20:01;48.97;;;48.64;;
84866;SDS011;75123;51.788;4.654;2024-03-08T06:22:28;49.35;;;48.83;;
84866;SDS011;75123;51.788;4.654;2024-03-08T06:24:55;48.66;;;48.22;;
84866;SDS011;75123;51.788;4.654;2024-03-08T06:27:21;50.71;;;49.42;;
84866;SDS011;75123;51.788;4.654;2024-03-08T06:29:47;49.84;;;49.01;;
84866;SDS011;75123;51.788;4.654;2024-03-08T06:32:14;48.81;;;48.29;;
84866;SDS011;75123;51.788;4.654;2024-03-08T06:34:40;49.27;;;48.86;;
84866;SDS011;75123;51.788;4.654;2024-03-08T06:37:06;50.51;;;49.63;;
84866;SDS011;75123;51.788;4.654;2024-03-08T06:39:31;48.92;;;48.61;;
84866;SDS011;75123;51.788;4.654;2024-03-08T06:41:57;49.82;;;49.46;;
84866;SDS011;75123;51.788;4.654;2024-03-08T06:44:23;49.69;;;48.88;;
84866;SDS011;75123;51.788;4.654;2024-03-08T06:46:48;50.29;;;49.65;;
84866;SDS011;75123;51.788;4.654;2024-03-08T06:49:14;48.20;;;47.71;;
84866;SDS011;75123;51.788;4.654;2024-03-08T06:51:40;48.62;;;48.50;;
84866;SDS011;75123;51.788;4.654;2024-03-08T06:54:06;49.02;;;48.55;;
84866;SDS011;75123;51.788;4.654;2024-03-08T06:56:34;48.87;;;48.38;;
84866;SDS011;75123;51.788;4.654;2024-03-08T06:59:00;49.42;;;48.60;;
84866;SDS011;75123;51.788;4.654;2024-03-08T07:01:28;49.29;;;48.32;;
84866;SDS011;75123;51.788;4.654;2024-03-08T07:03:57;49.33;;;48.78;;
84866;SDS011;75123;51.788;4.654;2024-03-08T07:06:23;49.93;;;48.76;;
84866;SDS011;75123;51.788;4.654;2024-03-08T07:08:48;48.43;;;47.58;;
84866;SDS011;75123;51.788;4.654;2024-03-08T07:11:14;48.15;;;47.26;;
84866;SDS011;75123;51.788;4.654;2024-03-08T07:13:44;48.36;;;47.39;;
84866;SDS011;75123;51.788;4.654;2024-03-08T07:16:10;46.78;;;46.55;;
84866;SDS011;75123;51.788;4.654;2024-03-08T07:18:37;46.87;;;46.58;;
84866;SDS011;75123;51.788;4.654;2024-03-08T07:21:05;46.45;;;46.34;;
84866;SDS011;75123;51.788;4.654;2024-03-08T07:23:30;47.88;;;47.36;;
84866;SDS011;75123;51.788;4.654;2024-03-08T07:26:15;47.60;;;47.04;;
84866;SDS011;75123;51.788;4.654;2024-03-08T07:28:41;46.16;;;45.82;;
84866;SDS011;75123;51.788;4.654;2024-03-08T07:31:07;47.18;;;46.56;;
84866;SDS011;75123;51.788;4.654;2024-03-08T07:33:58;47.31;;;46.90;;
84866;SDS011;75123;51.788;4.654;2024-03-08T07:36:24;46.71;;;46.13;;
84866;SDS011;75123;51.788;4.654;2024-03-08T07:38:49;46.86;;;46.50;;
84866;SDS011;75123;51.788;4.654;2024-03-08T07:41:15;47.85;;;47.48;;
84866;SDS011;75123;51.788;4.654;2024-03-08T07:43:41;46.63;;;46.19;;
84866;SDS011;75123;51.788;4.654;2024-03-08T07:46:07;46.80;;;46.41;;
84866;SDS011;75123;51.788;4.654;2024-03-08T07:48:35;46.87;;;46.08;;
84866;SDS011;75123;51.788;4.654;2024-03-08T07:51:01;46.76;;;46.03;;
84866;SDS011;75123;51.788;4.654;2024-03-08T07:53:28;45.36;;;45.18;;
84866;SDS011;75123;51.788;4.654;2024-03-08T07:55:53;46.87;;;45.64;;
84866;SDS011;75123;51.788;4.654;2024-03-08T07:58:19;46.39;;;45.56;;
84866;SDS011;75123;51.788;4.654;2024-03-08T08:00:44;45.79;;;45.10;;
84866;SDS011;75123;51.788;4.654;2024-03-08T08:03:10;47.20;;;46.22;;
84866;SDS011;75123;51.788;4.654;2024-03-08T08:05:35;45.12;;;44.64;;
84866;SDS011;75123;51.788;4.654;2024-03-08T08:08:03;45.47;;;45.10;;
84866;SDS011;75123;51.788;4.654;2024-03-08T08:10:32;45.86;;;45.22;;
84866;SDS011;75123;51.788;4.654;2024-03-08T08:12:58;46.34;;;45.47;;
84866;SDS011;75123;51.788;4.654;2024-03-08T08:15:23;44.78;;;44.41;;
84866;SDS011;75123;51.788;4.654;2024-03-08T08:17:49;45.21;;;45.01;;
84866;SDS011;75123;51.788;4.654;2024-03-08T08:20:14;44.62;;;44.45;;
84866;SDS011;75123;51.788;4.654;2024-03-08T08:22:41;44.28;;;43.95;;
84866;SDS011;75123;51.788;4.654;2024-03-08T08:25:08;43.81;;;43.59;;
84866;SDS011;75123;51.788;4.654;2024-03-08T08:27:34;44.55;;;44.07;;
84866;SDS011;75123;51.788;4.654;2024-03-08T08:30:02;43.45;;;43.12;;
84866;SDS011;75123;51.788;4.654;2024-03-08T08:32:35;43.62;;;43.50;;
84866;SDS011;75123;51.788;4.654;2024-03-08T08:35:02;42.60;;;42.18;;
84866;SDS011;75123;51.788;4.654;2024-03-08T08:37:29;42.57;;;42.01;;
84866;SDS011;75123;51.788;4.654;2024-03-08T08:39:59;41.48;;;41.25;;
84866;SDS011;75123;51.788;4.654;2024-03-08T08:42:30;42.30;;;41.91;;
84866;SDS011;75123;51.788;4.654;2024-03-08T08:44:56;42.19;;;41.95;;
84866;SDS011;75123;51.788;4.654;2024-03-08T08:47:22;41.27;;;41.14;;
84866;SDS011;75123;51.788;4.654;2024-03-08T08:49:48;41.50;;;41.24;;
84866;SDS011;75123;51.788;4.654;2024-03-08T08:52:15;42.08;;;41.41;;
84866;SDS011;75123;51.788;4.654;2024-03-08T08:54:42;40.92;;;40.77;;
84866;SDS011;75123;51.788;4.654;2024-03-08T08:57:07;39.73;;;39.63;;
84866;SDS011;75123;51.788;4.654;2024-03-08T08:59:33;40.10;;;39.80;;
84866;SDS011;75123;51.788;4.654;2024-03-08T09:02:05;38.76;;;38.75;;
84866;SDS011;75123;51.788;4.654;2024-03-08T09:04:31;38.46;;;38.29;;
84866;SDS011;75123;51.788;4.654;2024-03-08T09:06:57;37.83;;;37.67;;
84866;SDS011;75123;51.788;4.654;2024-03-08T09:09:22;38.94;;;38.62;;
84866;SDS011;75123;51.788;4.654;2024-03-08T09:11:48;37.86;;;37.78;;
84866;SDS011;75123;51.788;4.654;2024-03-08T09:14:15;38.10;;;38.05;;
84866;SDS011;75123;51.788;4.654;2024-03-08T09:16:40;37.66;;;37.59;;
84866;SDS011;75123;51.788;4.654;2024-03-08T09:19:06;37.92;;;37.78;;
84866;SDS011;75123;51.788;4.654;2024-03-08T09:21:32;37.56;;;37.45;;
84866;SDS011;75123;51.788;4.654;2024-03-08T09:23:59;37.64;;;37.59;;
84866;SDS011;75123;51.788;4.654;2024-03-08T09:26:25;38.28;;;38.00;;
84866;SDS011;75123;51.788;4.654;2024-03-08T09:28:52;38.24;;;38.13;;
84866;SDS011;75123;51.788;4.654;2024-03-08T09:31:19;37.86;;;37.79;;
84866;SDS011;75123;51.788;4.654;2024-03-08T09:33:45;38.34;;;38.21;;
84866;SDS011;75123;51.788;4.654;2024-03-08T09:36:11;38.52;;;38.52;;
84866;SDS011;75123;51.788;4.654;2024-03-08T09:38:39;38.68;;;38.60;;
84866;SDS011;75123;51.788;4.654;2024-03-08T09:41:05;38.67;;;38.52;;
84866;SDS011;75123;51.788;4.654;2024-03-08T09:43:31;38.56;;;38.48;;
84866;SDS011;75123;51.788;4.654;2024-03-08T09:45:56;38.28;;;38.26;;
84866;SDS011;75123;51.788;4.654;2024-03-08T09:48:23;37.47;;;37.33;;
84866;SDS011;75123;51.788;4.654;2024-03-08T09:50:51;37.60;;;37.37;;
84866;SDS011;75123;51.788;4.654;2024-03-08T09:53:16;36.02;;;35.87;;
84866;SDS011;75123;51.788;4.654;2024-03-08T09:55:42;36.58;;;36.18;;
84866;SDS011;75123;51.788;4.654;2024-03-08T09:58:13;36.86;;;36.86;;
84866;SDS011;75123;51.788;4.654;2024-03-08T10:00:43;36.20;;;36.18;;
84866;SDS011;75123;51.788;4.654;2024-03-08T10:03:09;36.25;;;36.19;;
84866;SDS011;75123;51.788;4.654;2024-03-08T10:05:35;35.54;;;35.40;;
84866;SDS011;75123;51.788;4.654;2024-03-08T10:08:01;35.80;;;35.80;;
84866;SDS011;75123;51.788;4.654;2024-03-08T10:10:28;36.04;;;35.90;;
84866;SDS011;75123;51.788;4.654;2024-03-08T10:12:54;36.25;;;36.23;;
84866;SDS011;75123;51.788;4.654;2024-03-08T10:15:21;37.03;;;36.90;;
84866;SDS011;75123;51.788;4.654;2024-03-08T10:17:46;35.07;;;34.89;;
84866;SDS011;75123;51.788;4.654;2024-03-08T10:20:18;34.28;;;34.23;;
84866;SDS011;75123;51.788;4.654;2024-03-08T10:22:44;34.19;;;34.18;;
84866;SDS011;75123;51.788;4.654;2024-03-08T10:25:13;34.46;;;34.45;;
84866;SDS011;75123;51.788;4.654;2024-03-08T10:27:39;34.07;;;34.06;;
84866;SDS011;75123;51.788;4.654;2024-03-08T10:30:06;34.46;;;34.43;;
84866;SDS011;75123;51.788;4.654;2024-03-08T10:32:38;33.88;;;33.88;;
84866;SDS011;75123;51.788;4.654;2024-03-08T10:35:04;33.16;;;33.15;;
84866;SDS011;75123;51.788;4.654;2024-03-08T10:37:30;34.40;;;34.23;;
84866;SDS011;75123;51.788;4.654;2024-03-08T10:40:04;34.97;;;34.81;;
84866;SDS011;75123;51.788;4.654;2024-03-08T10:42:47;35.24;;;34.96;;
84866;SDS011;75123;51.788;4.654;2024-03-08T10:45:50;35.87;;;35.69;;
84866;SDS011;75123;51.788;4.654;2024-03-08T10:51:04;34.62;;;34.36;;
84866;SDS011;75123;51.788;4.654;2024-03-08T10:53:30;33.77;;;33.68;;
84866;SDS011;75123;51.788;4.654;2024-03-08T10:55:56;33.79;;;33.70;;
84866;SDS011;75123;51.788;4.654;2024-03-08T10:58:23;33.80;;;33.80;;
84866;SDS011;75123;51.788;4.654;2024-03-08T11:00:53;33.42;;;33.42;;
84866;SDS011;75123;51.788;4.654;2024-03-08T11:06:05;33.43;;;33.32;;
84866;SDS011;75123;51.788;4.654;2024-03-08T11:08:31;32.27;;;32.25;;
84866;SDS011;75123;51.788;4.654;2024-03-08T11:10:59;32.88;;;32.81;;
84866;SDS011;75123;51.788;4.654;2024-03-08T11:16:00;31.05;;;31.02;;
84866;SDS011;75123;51.788;4.654;2024-03-08T11:18:26;30.84;;;30.78;;
84866;SDS011;75123;51.788;4.654;2024-03-08T11:20:55;30.39;;;30.36;;
84866;SDS011;75123;51.788;4.654;2024-03-08T11:23:22;29.44;;;29.44;;
84866;SDS011;75123;51.788;4.654;2024-03-08T11:25:49;31.64;;;31.63;;
84866;SDS011;75123;51.788;4.654;2024-03-08T11:28:18;30.90;;;30.73;;
84866;SDS011;75123;51.788;4.654;2024-03-08T11:33:27;29.95;;;29.94;;
84866;SDS011;75123;51.788;4.654;2024-03-08T11:36:13;29.82;;;29.82;;
84866;SDS011;75123;51.788;4.654;2024-03-08T11:38:47;30.01;;;30.00;;
84866;SDS011;75123;51.788;4.654;2024-03-08T11:41:22;29.53;;;29.50;;
84866;SDS011;75123;51.788;4.654;2024-03-08T11:43:49;28.44;;;28.40;;
84866;SDS011;75123;51.788;4.654;2024-03-08T11:46:32;28.07;;;28.04;;
84866;SDS011;75123;51.788;4.654;2024-03-08T11:48:59;27.26;;;27.26;;
84866;SDS011;75123;51.788;4.654;2024-03-08T11:51:26;26.42;;;26.42;;
84866;SDS011;75123;51.788;4.654;2024-03-08T11:53:52;27.08;;;27.08;;
84866;SDS011;75123;51.788;4.654;2024-03-08T11:56:18;27.50;;;27.35;;
84866;SDS011;75123;51.788;4.654;2024-03-08T11:58:53;26.57;;;26.50;;
84866;SDS011;75123;51.788;4.654;2024-03-08T12:01:23;27.45;;;27.43;;
84866;SDS011;75123;51.788;4.654;2024-03-08T12:03:56;27.92;;;27.86;;
84866;SDS011;75123;51.788;4.654;2024-03-08T12:06:24;27.60;;;27.60;;
84866;SDS011;75123;51.788;4.654;2024-03-08T12:08:51;27.73;;;27.71;;
84866;SDS011;75123;51.788;4.654;2024-03-08T12:11:17;28.32;;;28.20;;
84866;SDS011;75123;51.788;4.654;2024-03-08T12:13:48;27.11;;;27.09;;
84866;SDS011;75123;51.788;4.654;2024-03-08T12:16:16;27.53;;;27.53;;
84866;SDS011;75123;51.788;4.654;2024-03-08T12:18:43;27.62;;;27.58;;
84866;SDS011;75123;51.788;4.654;2024-03-08T12:21:10;26.90;;;26.78;;
84866;SDS011;75123;51.788;4.654;2024-03-08T12:23:38;27.08;;;26.83;;
84866;SDS011;75123;51.788;4.654;2024-03-08T12:26:17;27.16;;;27.11;;
84866;SDS011;75123;51.788;4.654;2024-03-08T12:28:44;26.45;;;26.44;;
84866;SDS011;75123;51.788;4.654;2024-03-08T12:31:14;25.82;;;25.75;;
84866;SDS011;75123;51.788;4.654;2024-03-08T12:33:52;26.77;;;26.69;;
84866;SDS011;75123;51.788;4.654;2024-03-08T12:36:20;26.64;;;26.64;;
84866;SDS011;75123;51.788;4.654;2024-03-08T12:38:46;27.13;;;27.13;;
84866;SDS011;75123;51.788;4.654;2024-03-08T12:41:16;26.97;;;26.97;;
84866;SDS011;75123;51.788;4.654;2024-03-08T12:43:43;26.30;;;26.29;;
84866;SDS011;75123;51.788;4.654;2024-03-08T12:46:22;26.67;;;26.67;;
84866;SDS011;75123;51.788;4.654;2024-03-08T12:48:51;27.06;;;26.76;;
84866;SDS011;75123;51.788;4.654;2024-03-08T12:51:18;27.17;;;26.94;;
84866;SDS011;75123;51.788;4.654;2024-03-08T12:53:45;26.59;;;26.52;;
84866;SDS011;75123;51.788;4.654;2024-03-08T12:56:20;25.88;;;25.86;;
84866;SDS011;75123;51.788;4.654;2024-03-08T12:58:54;26.47;;;26.47;;
84866;SDS011;75123;51.788;4.654;2024-03-08T13:01:21;25.75;;;25.73;;
84866;SDS011;75123;51.788;4.654;2024-03-08T13:03:47;25.31;;;25.28;;
84866;SDS011;75123;51.788;4.654;2024-03-08T13:06:14;25.00;;;25.00;;
84866;SDS011;75123;51.788;4.654;2024-03-08T13:08:40;24.98;;;24.95;;
84866;SDS011;75123;51.788;4.654;2024-03-08T13:11:09;25.01;;;24.98;;
84866;SDS011;75123;51.788;4.654;2024-03-08T13:13:37;23.39;;;23.39;;
84866;SDS011;75123;51.788;4.654;2024-03-08T13:16:05;26.37;;;26.36;;
84866;SDS011;75123;51.788;4.654;2024-03-08T13:18:34;27.18;;;27.13;;
84866;SDS011;75123;51.788;4.654;2024-03-08T13:21:00;27.33;;;27.27;;
84866;SDS011;75123;51.788;4.654;2024-03-08T13:23:36;28.05;;;27.84;;
84866;SDS011;75123;51.788;4.654;2024-03-08T13:26:08;27.33;;;27.30;;
84866;SDS011;75123;51.788;4.654;2024-03-08T13:28:37;27.11;;;26.78;;
84866;SDS011;75123;51.788;4.654;2024-03-08T13:31:03;27.17;;;27.06;;
84866;SDS011;75123;51.788;4.654;2024-03-08T13:33:32;27.56;;;27.55;;
84866;SDS011;75123;51.788;4.654;2024-03-08T13:36:01;27.88;;;27.77;;
84866;SDS011;75123;51.788;4.654;2024-03-08T13:38:27;27.74;;;27.74;;
84866;SDS011;75123;51.788;4.654;2024-03-08T13:40:53;28.72;;;28.70;;
84866;SDS011;75123;51.788;4.654;2024-03-08T13:43:18;29.24;;;29.18;;
84866;SDS011;75123;51.788;4.654;2024-03-08T13:45:44;29.04;;;28.86;;
84866;SDS011;75123;51.788;4.654;2024-03-08T13:48:09;29.30;;;29.15;;
84866;SDS011;75123;51.788;4.654;2024-03-08T13:50:38;30.17;;;29.86;;
84866;SDS011;75123;51.788;4.654;2024-03-08T13:53:04;29.68;;;29.58;;
84866;SDS011;75123;51.788;4.654;2024-03-08T13:55:30;29.20;;;29.17;;
84866;SDS011;75123;51.788;4.654;2024-03-08T13:57:56;29.92;;;29.80;;
84866;SDS011;75123;51.788;4.654;2024-03-08T14:00:22;29.44;;;29.29;;
84866;SDS011;75123;51.788;4.654;2024-03-08T14:02:50;29.06;;;29.00;;
84866;SDS011;75123;51.788;4.654;2024-03-08T14:05:15;28.67;;;28.65;;
84866;SDS011;75123;51.788;4.654;2024-03-08T14:07:41;29.29;;;29.23;;
84866;SDS011;75123;51.788;4.654;2024-03-08T14:10:07;28.89;;;28.86;;
84866;SDS011;75123;51.788;4.654;2024-03-08T14:12:35;29.65;;;29.62;;
84866;SDS011;75123;51.788;4.654;2024-03-08T14:15:01;29.46;;;29.45;;
84866;SDS011;75123;51.788;4.654;2024-03-08T14:17:26;30.88;;;30.84;;
84866;SDS011;75123;51.788;4.654;2024-03-08T14:19:53;30.22;;;30.10;;
84866;SDS011;75123;51.788;4.654;2024-03-08T14:22:19;29.67;;;29.67;;
84866;SDS011;75123;51.788;4.654;2024-03-08T14:24:45;30.43;;;30.24;;
84866;SDS011;75123;51.788;4.654;2024-03-08T14:27:11;30.93;;;30.55;;
84866;SDS011;75123;51.788;4.654;2024-03-08T14:29:37;31.23;;;31.19;;
84866;SDS011;75123;51.788;4.654;2024-03-08T14:32:06;32.11;;;31.85;;